Decoded Metar for LFMD (CANNES in FRANCE) (IATA:CEQ) | Meteo·Mobile Aviation Weather
aviador You're here:

LFMD Decoded Metar

CANNES in FRANCE
Report Time2018-10-18 10:30:00
UTC Time2018-10-18 11:05:30
Flight Rules vfr VFR
Wind120° at 07 kt
W.Decomp.*RWY 17: 4.5 kt HW 5.4 kt LCW
RWY 04: 1.2 kt HW 6.9 kt RCW
W.Rank120° ranks 17
Current wind is above 120° avg. (5.7)
Visibility9999 m
Phenomena:N/A
Clouds:N/A
Expected CloudBase > 4,400 ft AGL from Temp-Dew spread
CeilingNone
Temp25°C (ISA +10)
Dew Point14°C (51% RH)
AAT23.8°C
QNH1013 hPa
Density Alt1,411 ft
Elevation30 ft
Report Wrong Elevation
Raw Report
METAR LFMD 181030Z AUTO 12007KT 020V180 CAVOK 25/14 Q1013 NOSIG=

Extra information for LFMD:More info

Metar Taf Metar & Taf Last 4 Metars F.Rules Stats Wind Profile Meteogram Temp Stats Airport Information Weather charts Add Link Nearby VenuesMetar ALERT Operation Metar Decoded Social comments